Terminal Aerodrome Forecast
Issued by NWS Charleston, WV

Current Version | Previous Version | Text Only | Print | Product List | Glossary Off
Versions: 1 2 3 4 5 6 7 8 9 10 11 12 13 14 15 16 17 18 19 20 21

000
FTUS41 KRLX 311743
TAFBKW
TAF
KBKW 311743Z 3118/0118 32006KT P6SM SCT050
      TEMPO 3118/3120 BKN050
     FM010400 26003KT P6SM SCT250
     FM011300 29003KT P6SM SCT080
     FM011500 30008KT P6SM SCT050=

USA.gov is the U.S. government's official web portal to all federal, state and local government web resources and services.